Time;durP1;ratioP1;P1;durP2;ratioP2;P2;SDS_P1;SDS_P2;PMS_P1;PMS_P2;Temp;Humidity;BMP_temperature;BMP_pressure;BME280_temperature;BME280_humidity;BME280_pressure;Samples;Min_cycle;Max_cycle;Signal;HPM_P1;HPM_P2
2022/07/26 00:00:24;;;;;;;5.70;1.50;;;;;;;19.02;97.33;101244.47;5197696;28;20049;-74
2022/07/26 00:02:55;;;;;;;4.87;1.83;;;;;;;19.01;97.48;101242.81;5202961;28;20010;-74
2022/07/26 00:05:26;;;;;;;7.37;1.93;;;;;;;18.99;97.62;101244.81;5202792;28;20037;-74
2022/07/26 00:08:09;;;;;;;5.70;1.80;;;;;;;19.01;97.57;101257.91;5197912;28;20391;-74
2022/07/26 00:10:44;;;;;;;5.40;1.75;;;;;;;19.02;98.27;101251.63;5198804;28;20130;-74
2022/07/26 00:13:19;;;;;;;8.85;2.20;;;;;;;18.94;98.96;101249.81;5199723;28;20542;-74
2022/07/26 00:15:50;;;;;;;5.40;1.63;;;;;;;18.83;99.43;101243.09;5196150;28;20026;-74
2022/07/26 00:18:22;;;;;;;9.18;1.98;;;;;;;18.92;98.63;101249.19;5197951;28;20034;-74
2022/07/26 00:20:54;;;;;;;5.83;2.03;;;;;;;18.91;98.50;101250.19;5200545;28;20034;-73
2022/07/26 00:23:25;;;;;;;5.30;1.40;;;;;;;18.89;99.13;101246.88;5200794;28;20462;-73
2022/07/26 00:25:56;;;;;;;6.80;1.57;;;;;;;18.86;99.42;101244.56;5199889;28;20053;-74
2022/07/26 00:28:28;;;;;;;6.23;1.73;;;;;;;18.86;100.00;101249.88;5197779;28;20526;-73
2022/07/26 00:30:59;;;;;;;7.68;2.00;;;;;;;18.77;100.00;101251.75;5200754;28;20021;-73
2022/07/26 00:33:30;;;;;;;6.80;1.97;;;;;;;18.78;100.00;101252.56;5201787;28;20041;-73
2022/07/26 00:36:02;;;;;;;6.90;1.80;;;;;;;18.77;100.00;101250.91;5198147;28;20030;-74
2022/07/26 00:38:33;;;;;;;7.20;1.65;;;;;;;18.77;100.00;101259.72;5200111;28;20037;-73
2022/07/26 00:41:06;;;;;;;6.80;1.93;;;;;;;18.76;100.00;101258.06;5197989;28;20025;-74
2022/07/26 00:43:51;;;;;;;5.07;1.65;;;;;;;18.78;100.00;101258.69;5197789;28;20034;-74
2022/07/26 00:46:22;;;;;;;6.68;1.77;;;;;;;18.76;100.00;101257.25;5203327;28;20029;-73
2022/07/26 00:48:54;;;;;;;6.50;1.80;;;;;;;18.79;100.00;101255.06;5199212;28;20037;-72
2022/07/26 00:51:25;;;;;;;7.40;1.92;;;;;;;18.78;100.00;101258.69;5196335;28;20391;-73
2022/07/26 00:53:56;;;;;;;5.00;1.43;;;;;;;18.80;100.00;101263.84;5202212;28;20025;-73
2022/07/26 00:56:29;;;;;;;4.27;1.60;;;;;;;18.81;100.00;101268.16;5203058;28;20022;-73
2022/07/26 00:59:01;;;;;;;6.07;1.83;;;;;;;18.77;100.00;101259.72;5198039;28;20388;-73
2022/07/26 01:01:32;;;;;;;5.83;2.03;;;;;;;18.71;100.00;101253.28;5200451;28;20549;-73
2022/07/26 01:04:03;;;;;;;7.10;2.10;;;;;;;18.77;100.00;101258.88;5198815;28;20116;-73
2022/07/26 01:06:35;;;;;;;5.97;2.10;;;;;;;18.74;100.00;101253.91;5201310;28;20419;-73
2022/07/26 01:09:07;;;;;;;7.20;1.90;;;;;;;18.74;100.00;101259.22;5204627;28;20112;-73
2022/07/26 01:11:38;;;;;;;8.02;1.98;;;;;;;18.80;100.00;101258.53;5196578;28;20045;-74
2022/07/26 01:14:09;;;;;;;8.27;2.05;;;;;;;18.82;100.00;101256.53;5197227;28;20037;-73
2022/07/26 01:16:42;;;;;;;8.53;1.90;;;;;;;18.81;100.00;101254.88;5197506;28;20037;-74
2022/07/26 01:19:14;;;;;;;;;;;;;;;19.38;100.00;101247.38;5198064;28;20035;-74
2022/07/26 01:21:45;;;;;;;9.82;2.40;;;;;;;18.82;100.00;101244.06;5199590;28;19924;-75
2022/07/26 01:24:17;;;;;;;8.37;1.67;;;;;;;18.85;100.00;101246.38;5198889;28;20549;-74
2022/07/26 01:26:48;;;;;;;7.30;1.80;;;;;;;18.81;100.00;101244.25;5199126;28;20036;-74
2022/07/26 01:29:20;;;;;;;5.65;2.13;;;;;;;18.80;100.00;101239.97;5200161;28;20030;-74
2022/07/26 01:31:52;;;;;;;10.27;2.17;;;;;;;18.81;100.00;101245.09;5206929;28;20298;-74
2022/07/26 01:34:23;;;;;;;8.17;2.57;;;;;;;18.83;100.00;101242.28;5200483;28;20041;-74
2022/07/26 01:36:55;;;;;;;6.07;2.22;;;;;;;18.80;100.00;101234.66;5203765;28;20254;-74
2022/07/26 01:39:26;;;;;;;10.27;3.00;;;;;;;18.79;100.00;101239.16;5200247;28;20247;-74
2022/07/26 01:41:58;;;;;;;8.10;2.33;;;;;;;18.80;100.00;101237.31;5199878;28;20400;-74
2022/07/26 01:44:29;;;;;;;7.97;2.38;;;;;;;18.78;100.00;101236.66;5203532;28;20082;-75
2022/07/26 01:47:00;;;;;;;7.22;2.17;;;;;;;18.76;100.00;101242.13;5203145;28;20133;-74
2022/07/26 01:49:31;;;;;;;6.03;2.37;;;;;;;18.76;100.00;101250.09;5202007;28;20029;-74
2022/07/26 01:52:03;;;;;;;8.68;2.70;;;;;;;18.78;100.00;101245.44;5206104;28;20042;-74
2022/07/26 01:54:34;;;;;;;6.27;2.07;;;;;;;18.78;100.00;101247.25;5201393;28;20087;-74
2022/07/26 01:57:06;;;;;;;7.40;2.63;;;;;;;18.74;100.00;101248.59;5200141;28;20181;-74
2022/07/26 01:59:37;;;;;;;6.23;2.57;;;;;;;18.77;100.00;101243.78;5203412;28;20117;-75
2022/07/26 02:02:08;;;;;;;8.80;2.72;;;;;;;18.76;100.00;101252.75;5196724;28;20372;-74
2022/07/26 02:04:57;;;;;;;8.53;2.93;;;;;;;18.79;100.00;101248.91;5203174;28;20125;-74
2022/07/26 02:07:39;;;;;;;9.25;2.70;;;;;;;18.86;100.00;101255.19;5194238;28;20018;-75
2022/07/26 02:10:12;;;;;;;8.48;2.80;;;;;;;18.74;100.00;101259.22;5196730;28;20038;-75
2022/07/26 02:12:43;;;;;;;;;;;;;;;19.32;100.00;101252.56;5203141;28;20089;-74
2022/07/26 02:15:14;;;;;;;12.47;3.10;;;;;;;18.76;100.00;101258.06;5204405;28;20358;-74
2022/07/26 02:17:46;;;;;;;10.97;3.13;;;;;;;18.75;100.00;101245.78;5198860;28;20132;-74
2022/07/26 02:20:17;;;;;;;9.70;3.13;;;;;;;18.77;100.00;101249.09;5204734;28;20042;-74
2022/07/26 02:22:48;;;;;;;11.40;2.77;;;;;;;18.74;100.00;101244.13;5200342;28;20038;-74
2022/07/26 02:25:19;;;;;;;10.03;3.17;;;;;;;18.75;100.00;101255.56;5202811;28;20041;-74
2022/07/26 02:27:51;;;;;;;10.07;2.70;;;;;;;18.81;100.00;101262.84;5202609;28;20454;-75
2022/07/26 02:30:22;;;;;;;12.57;2.80;;;;;;;18.76;100.00;101260.72;5201136;28;20076;-74
2022/07/26 02:32:54;;;;;;;9.10;2.95;;;;;;;18.74;100.00;101253.91;5201655;28;20618;-74
2022/07/26 02:35:26;;;;;;;11.77;3.10;;;;;;;18.81;100.00;101266.31;5203960;28;20551;-74
2022/07/26 02:38:05;;;;;;;9.70;3.28;;;;;;;18.77;100.00;101254.41;5199364;28;20041;-74
2022/07/26 02:40:37;;;;;;;11.65;3.30;;;;;;;18.69;100.00;101268.50;5199966;28;20494;-74
2022/07/26 02:43:09;;;;;;;13.75;3.20;;;;;;;18.73;100.00;101262.88;5205637;28;20129;-74
2022/07/26 02:45:41;;;;;;;9.67;2.90;;;;;;;18.70;100.00;101267.53;5202257;28;20170;-74
2022/07/26 02:48:12;;;;;;;13.38;3.45;;;;;;;18.72;100.00;101270.03;5205614;28;20292;-72
2022/07/26 02:50:43;;;;;;;10.93;3.30;;;;;;;18.70;100.00;101275.50;5199508;28;20061;-73
2022/07/26 02:53:14;;;;;;;11.93;3.53;;;;;;;18.73;100.00;101273.50;5194660;28;20506;-73
2022/07/26 02:55:46;;;;;;;11.93;3.43;;;;;;;18.73;100.00;101281.47;5198231;28;20483;-73
2022/07/26 02:58:20;;;;;;;10.27;3.57;;;;;;;18.70;100.00;101275.50;5200716;28;20411;-75
2022/07/26 03:00:51;;;;;;;15.35;3.92;;;;;;;18.68;100.00;101282.78;5203549;28;20034;-73
2022/07/26 03:03:23;;;;;;;9.25;3.17;;;;;;;18.77;100.00;101275.63;5199776;28;20034;-73
2022/07/26 03:05:54;;;;;;;12.60;3.63;;;;;;;18.78;100.00;101287.91;5198243;28;20038;-73
2022/07/26 03:08:25;;;;;;;11.37;3.20;;;;;;;18.77;100.00;101282.78;5201233;28;20318;-73
2022/07/26 03:10:57;;;;;;;12.17;3.70;;;;;;;18.77;100.00;101293.41;5199180;28;20455;-73
2022/07/26 03:13:28;;;;;;;12.07;3.47;;;;;;;18.73;100.00;101284.94;5200032;28;20030;-73
2022/07/26 03:15:59;;;;;;;13.60;4.10;;;;;;;18.75;100.00;101298.84;5202774;28;20108;-73
2022/07/26 03:18:31;;;;;;;11.43;3.90;;;;;;;18.71;100.00;101294.91;5198052;28;20044;-73
2022/07/26 03:21:02;;;;;;;11.13;3.63;;;;;;;18.70;100.00;101302.03;5200608;28;20079;-73
2022/07/26 03:23:34;;;;;;;16.40;4.13;;;;;;;18.69;100.00;101299.53;5204902;28;20026;-74
2022/07/26 03:26:05;;;;;;;11.67;4.17;;;;;;;18.65;100.00;101301.69;5200575;28;20036;-74
2022/07/26 03:28:38;;;;;;;10.55;3.70;;;;;;;18.67;100.00;101302.34;5200134;28;20049;-74
2022/07/26 03:31:10;;;;;;;;;;;;;;;19.27;100.00;101305.41;5202203;28;20121;-74
2022/07/26 03:33:41;;;;;;;12.70;4.03;;;;;;;18.74;100.00;101312.31;5203709;28;19924;-74
2022/07/26 03:36:13;;;;;;;13.95;3.72;;;;;;;18.74;100.00;101309.66;5199977;28;20033;-74
2022/07/26 03:38:44;;;;;;;12.17;4.10;;;;;;;18.83;100.00;101313.94;5202915;28;20029;-74
2022/07/26 03:41:15;;;;;;;13.47;3.93;;;;;;;18.71;100.00;101318.78;5203536;28;20030;-74
2022/07/26 03:43:46;;;;;;;13.73;4.50;;;;;;;18.69;100.00;101324.25;5200413;28;20573;-74
2022/07/26 03:46:18;;;;;;;11.45;4.13;;;;;;;18.67;100.00;101320.09;5200449;28;20052;-74
2022/07/26 03:48:49;;;;;;;12.88;4.13;;;;;;;18.68;100.00;101317.28;5202125;28;20096;-74
2022/07/26 03:51:20;;;;;;;13.07;4.22;;;;;;;18.65;100.00;101317.63;5197650;28;20022;-74
2022/07/26 03:53:51;;;;;;;14.02;4.97;;;;;;;18.60;100.00;101313.81;5202006;28;20026;-74
2022/07/26 03:56:32;;;;;;;11.20;4.00;;;;;;;18.68;100.00;101321.78;5199873;28;20037;-74
2022/07/26 03:59:05;;;;;;;11.18;4.25;;;;;;;18.63;100.00;101327.56;5198631;28;20046;-74
2022/07/26 04:01:42;;;;;;;12.63;4.05;;;;;;;18.62;100.00;101330.41;5187794;28;20057;-74
2022/07/26 04:04:14;;;;;;;11.43;3.60;;;;;;;18.59;100.00;101328.09;5204032;28;20030;-73
2022/07/26 04:06:46;;;;;;;11.77;3.97;;;;;;;18.62;100.00;101323.28;5195779;28;20161;-74
2022/07/26 04:09:18;;;;;;;12.65;4.55;;;;;;;18.62;100.00;101328.56;5196975;28;20062;-74
2022/07/26 04:11:49;;;;;;;13.23;4.63;;;;;;;18.67;100.00;101333.38;5202818;28;20176;-74
2022/07/26 04:14:20;;;;;;;15.10;4.68;;;;;;;18.69;100.00;101334.84;5200563;28;20049;-74
2022/07/26 04:16:52;;;;;;;12.52;4.45;;;;;;;18.67;100.00;101328.06;5194690;28;20026;-74
2022/07/26 04:19:23;;;;;;;14.43;4.13;;;;;;;18.70;100.00;101325.91;5199033;28;20100;-74
2022/07/26 04:21:54;;;;;;;10.65;4.05;;;;;;;18.68;100.00;101325.25;5204239;28;20034;-74
2022/07/26 04:24:25;;;;;;;11.10;4.03;;;;;;;18.73;100.00;101331.91;5202259;28;20117;-74
2022/07/26 04:26:57;;;;;;;10.38;3.58;;;;;;;18.75;100.00;101340.50;5199698;28;20037;-74
2022/07/26 04:29:28;;;;;;;14.52;3.85;;;;;;;18.71;100.00;101338.22;5206305;28;20092;-74
2022/07/26 04:31:59;;;;;;;11.50;3.87;;;;;;;18.67;100.00;101336.84;5200966;28;20017;-74
2022/07/26 04:34:30;;;;;;;11.83;3.97;;;;;;;18.73;100.00;101343.34;5200448;28;20076;-74
2022/07/26 04:37:02;;;;;;;12.10;4.30;;;;;;;18.74;100.00;101342.34;5199588;28;20036;-74
2022/07/26 04:39:33;;;;;;;12.80;4.50;;;;;;;18.77;100.00;101352.63;5203996;28;20117;-74
2022/07/26 04:42:04;;;;;;;12.03;3.93;;;;;;;18.77;100.00;101355.28;5200077;28;20030;-74
2022/07/26 04:44:36;;;;;;;13.73;4.27;;;;;;;18.83;100.00;101356.44;5197950;28;20077;-74
2022/07/26 04:47:08;;;;;;;11.80;4.37;;;;;;;18.78;100.00;101343.66;5198706;28;20084;-74
2022/07/26 04:49:39;;;;;;;13.23;4.03;;;;;;;18.85;100.00;101352.59;5199224;28;20034;-74
2022/07/26 04:52:10;;;;;;;10.10;3.47;;;;;;;18.84;100.00;101344.81;5201239;28;20057;-74
2022/07/26 04:54:41;;;;;;;14.03;4.40;;;;;;;18.84;100.00;101350.94;5199842;28;20069;-74
2022/07/26 04:57:13;;;;;;;12.00;4.67;;;;;;;18.82;100.00;101349.44;5195546;28;20521;-74
2022/07/26 04:59:44;;;;;;;12.00;3.90;;;;;;;18.81;100.00;101361.88;5202951;28;20025;-74
2022/07/26 05:02:17;;;;;;;12.53;4.67;;;;;;;18.78;100.00;101356.09;5199216;28;20083;-73
2022/07/26 05:04:48;;;;;;;12.07;4.22;;;;;;;18.76;100.00;101356.28;5202153;28;20486;-73
2022/07/26 05:07:19;;;;;;;13.57;4.03;;;;;;;18.83;100.00;101359.09;5201117;28;20120;-74
2022/07/26 05:09:50;;;;;;;12.88;4.47;;;;;;;18.82;100.00;101355.56;5201050;28;20038;-73
2022/07/26 05:12:22;;;;;;;13.10;4.80;;;;;;;18.79;100.00;101363.91;5196684;28;20034;-74
2022/07/26 05:14:53;;;;;;;14.98;4.18;;;;;;;18.84;100.00;101358.06;5196554;28;20030;-74
2022/07/26 05:17:24;;;;;;;12.05;4.38;;;;;;;18.80;100.00;101360.25;5196458;28;20439;-74
2022/07/26 05:19:56;;;;;;;10.57;3.65;;;;;;;18.83;100.00;101372.34;5200313;28;20033;-74
2022/07/26 05:22:27;;;;;;;16.70;4.35;;;;;;;18.85;100.00;101373.81;5197162;28;20113;-73
2022/07/26 05:24:58;;;;;;;12.07;4.43;;;;;;;18.89;100.00;101377.78;5197932;28;20032;-75
2022/07/26 05:27:30;;;;;;;10.63;3.60;;;;;;;18.87;100.00;101377.16;5194075;28;20028;-75
2022/07/26 05:30:01;;;;;;;13.53;4.60;;;;;;;18.88;100.00;101380.63;5197034;28;20030;-74
2022/07/26 05:32:33;;;;;;;11.13;4.60;;;;;;;18.93;100.00;101389.72;5192340;28;20038;-74
2022/07/26 05:35:05;;;;;;;12.70;4.37;;;;;;;18.98;100.00;101393.69;5198913;28;20068;-73
2022/07/26 05:37:37;;;;;;;10.38;4.30;;;;;;;18.95;100.00;101393.03;5195119;28;20064;-73
2022/07/26 05:40:09;;;;;;;8.77;3.83;;;;;;;19.04;100.00;101398.31;5197847;28;20145;-73
2022/07/26 05:42:41;;;;;;;9.90;4.40;;;;;;;19.04;100.00;101390.34;5195963;28;20026;-73
2022/07/26 05:45:12;;;;;;;14.40;4.05;;;;;;;19.11;100.00;101389.50;5203560;28;20542;-72
2022/07/26 05:47:43;;;;;;;12.83;4.33;;;;;;;19.20;100.00;101401.72;5195196;28;20030;-73
2022/07/26 05:50:15;;;;;;;15.23;4.28;;;;;;;19.24;100.00;101404.84;5195531;28;20049;-72
2022/07/26 05:52:46;;;;;;;14.73;4.88;;;;;;;19.29;100.00;101410.50;5204184;28;20029;-73
2022/07/26 05:55:18;;;;;;;11.50;3.90;;;;;;;19.38;100.00;101406.78;5201338;28;20037;-74
2022/07/26 05:57:49;;;;;;;10.18;3.97;;;;;;;19.48;100.00;101405.75;5198831;28;20045;-74
2022/07/26 06:00:20;;;;;;;10.90;4.63;;;;;;;19.60;100.00;101404.34;5197377;28;20030;-75
2022/07/26 06:02:52;;;;;;;14.07;4.60;;;;;;;19.63;100.00;101410.19;5198443;28;20034;-73
2022/07/26 06:05:23;;;;;;;11.83;4.03;;;;;;;19.64;100.00;101414.47;5188066;28;20022;-72
2022/07/26 06:07:54;;;;;;;9.93;3.58;;;;;;;19.71;100.00;101401.31;5197655;28;20030;-74
2022/07/26 06:10:26;;;;;;;14.30;4.50;;;;;;;19.60;100.00;101391.06;5200835;28;20042;-74
2022/07/26 06:12:59;;;;;;;8.93;3.60;;;;;;;19.73;100.00;101412.59;5197626;28;20030;-74
2022/07/26 06:15:30;;;;;;;11.25;4.53;;;;;;;19.73;100.00;101409.94;5201225;28;20386;-74
2022/07/26 06:18:02;;;;;;;8.32;3.78;;;;;;;19.88;100.00;101410.81;5192072;28;20038;-74
2022/07/26 06:20:36;;;;;;;10.80;3.50;;;;;;;20.01;100.00;101412.91;5205628;28;20149;-73
2022/07/26 06:23:08;;;;;;;10.98;3.97;;;;;;;20.01;100.00;101412.91;5205140;28;20434;-73
2022/07/26 06:25:39;;;;;;;8.40;4.00;;;;;;;20.13;100.00;101421.28;5194879;28;20030;-73
2022/07/26 06:28:11;;;;;;;7.73;4.00;;;;;;;20.14;100.00;101415.78;5201663;28;20377;-73
2022/07/26 06:30:43;;;;;;;7.63;3.33;;;;;;;20.30;100.00;101422.78;5202602;28;20042;-73
2022/07/26 06:33:14;;;;;;;10.80;3.50;;;;;;;20.35;100.00;101417.78;5201352;28;20027;-72
2022/07/26 06:35:46;;;;;;;7.70;3.27;;;;;;;20.47;100.00;101418.16;5199452;28;20057;-73
2022/07/26 06:38:17;;;;;;;10.30;3.00;;;;;;;20.49;100.00;101410.84;5202629;28;20030;-74
2022/07/26 06:40:48;;;;;;;7.87;2.70;;;;;;;20.59;100.00;101414.06;5201158;28;21044;-74
2022/07/26 06:43:20;;;;;;;9.13;3.37;;;;;;;20.61;100.00;101428.03;5195982;28;20035;-74
2022/07/26 06:45:51;;;;;;;10.03;3.17;;;;;;;20.70;100.00;101422.63;5199352;28;20085;-74
2022/07/26 06:48:23;;;;;;;10.40;3.60;;;;;;;20.79;100.00;101434.81;5198076;28;20033;-74
2022/07/26 06:50:54;;;;;;;11.27;3.80;;;;;;;20.86;100.00;101422.44;5204768;28;20031;-74
2022/07/26 06:53:25;;;;;;;9.17;3.13;;;;;;;21.08;100.00;101429.50;5198655;28;20033;-74
2022/07/26 06:55:56;;;;;;;10.20;3.73;;;;;;;21.17;100.00;101430.22;5202031;28;20061;-73
2022/07/26 06:58:28;;;;;;;8.83;3.00;;;;;;;21.15;100.00;101434.94;5199686;28;20364;-74
2022/07/26 07:00:59;;;;;;;7.70;2.60;;;;;;;21.24;100.00;101444.47;5203731;28;20030;-74
2022/07/26 07:03:30;;;;;;;9.53;2.57;;;;;;;21.31;100.00;101437.38;5196065;28;20087;-74
2022/07/26 07:06:02;;;;;;;9.00;2.60;;;;;;;21.23;100.00;101439.34;5201758;28;20034;-74
2022/07/26 07:08:34;;;;;;;6.07;2.30;;;;;;;21.27;100.00;101452.09;5205763;28;20034;-74
2022/07/26 07:11:05;;;;;;;8.03;2.37;;;;;;;21.45;100.00;101449.06;5203054;28;20054;-74
2022/07/26 07:13:36;;;;;;;7.00;2.30;;;;;;;21.50;99.71;101452.00;5203628;28;20041;-74
2022/07/26 07:16:08;;;;;;;6.50;2.23;;;;;;;21.69;98.71;101463.06;5199957;28;20492;-74
2022/07/26 07:18:39;;;;;;;8.03;2.40;;;;;;;21.62;95.29;101447.00;5199195;28;20113;-74
2022/07/26 07:21:10;;;;;;;11.27;2.70;;;;;;;21.69;93.70;101458.56;5208675;28;20526;-74
2022/07/26 07:23:42;;;;;;;7.40;2.07;;;;;;;21.68;95.75;101459.59;5203574;28;20076;-74
2022/07/26 07:26:13;;;;;;;6.57;2.00;;;;;;;21.66;95.14;101458.13;5198751;28;20042;-72
2022/07/26 07:28:44;;;;;;;5.77;1.80;;;;;;;21.65;91.29;101461.81;5201292;28;20425;-74
2022/07/26 07:31:16;;;;;;;7.07;1.80;;;;;;;21.68;89.69;101464.09;5197751;28;20887;-74
2022/07/26 07:33:47;;;;;;;8.93;2.20;;;;;;;21.96;90.93;101457.00;5202184;28;20041;-74
2022/07/26 07:36:18;;;;;;;5.80;1.93;;;;;;;22.13;88.57;101462.94;5199418;28;20084;-73
2022/07/26 07:38:50;;;;;;;6.97;2.17;;;;;;;22.06;87.17;101465.53;5201138;28;20040;-73
2022/07/26 07:41:21;;;;;;;5.17;2.03;;;;;;;22.01;87.72;101462.59;5202849;28;20049;-73
2022/07/26 07:43:52;;;;;;;5.73;2.17;;;;;;;21.98;87.03;101462.97;5200582;28;20081;-73
2022/07/26 07:46:23;;;;;;;5.50;1.80;;;;;;;21.99;88.56;101463.81;5199834;28;20041;-73
2022/07/26 07:48:55;;;;;;;7.27;2.03;;;;;;;22.25;86.75;101457.94;5194255;28;20040;-73
2022/07/26 07:51:27;;;;;;;7.27;2.03;;;;;;;22.57;87.51;101460.03;5201840;28;20103;-73
2022/07/26 07:53:59;;;;;;;8.83;2.10;;;;;;;22.56;82.94;101461.03;5198920;28;20749;-73
2022/07/26 07:56:30;;;;;;;7.03;2.00;;;;;;;22.65;83.12;101460.91;5200492;28;20062;-73
2022/07/26 07:59:02;;;;;;;6.40;2.00;;;;;;;22.46;81.69;101468.56;5200261;28;20043;-74
2022/07/26 08:01:33;;;;;;;7.40;2.17;;;;;;;22.33;82.47;101468.47;5199915;28;20126;-74
2022/07/26 08:04:04;;;;;;;5.47;2.17;;;;;;;22.21;82.30;101473.50;5196939;28;20042;-74
2022/07/26 08:06:36;;;;;;;7.07;1.93;;;;;;;22.21;82.57;101488.69;5200057;28;20525;-74
2022/07/26 08:09:07;;;;;;;5.87;2.20;;;;;;;22.02;82.43;101477.59;5196050;28;20533;-74
2022/07/26 08:11:39;;;;;;;6.80;2.27;;;;;;;21.93;85.87;101484.06;5195909;28;20053;-74
2022/07/26 08:14:10;;;;;;;4.97;1.87;;;;;;;21.78;91.20;101488.59;5199523;28;20033;-74
2022/07/26 08:16:43;;;;;;;4.43;1.83;;;;;;;21.66;95.47;101498.94;5193611;28;20042;-74
2022/07/26 08:19:14;;;;;;;3.60;1.30;;;;;;;21.38;94.51;101485.47;5193574;28;20030;-73
2022/07/26 08:21:46;;;;;;;3.07;1.37;;;;;;;21.37;100.00;101502.50;5194480;28;20030;-73
2022/07/26 08:24:17;;;;;;;3.03;1.00;;;;;;;21.33;100.00;101502.03;5199806;28;20464;-74
2022/07/26 08:26:50;;;;;;;2.73;0.87;;;;;;;21.13;100.00;101509.69;5190799;28;20026;-75
2022/07/26 08:29:21;;;;;;;2.67;0.70;;;;;;;21.21;100.00;101514.13;5200158;28;20464;-74
2022/07/26 08:31:52;;;;;;;2.07;0.67;;;;;;;21.08;100.00;101520.09;5202798;28;20033;-74
2022/07/26 08:34:24;;;;;;;2.00;0.77;;;;;;;21.07;100.00;101510.44;5199473;28;20134;-74
2022/07/26 08:36:55;;;;;;;3.10;0.70;;;;;;;21.12;100.00;101517.88;5199303;28;20075;-74
2022/07/26 08:39:26;;;;;;;1.57;0.50;;;;;;;21.07;100.00;101513.13;5200636;28;20030;-74
2022/07/26 08:41:58;;;;;;;1.10;0.53;;;;;;;21.19;100.00;101518.00;5199613;28;20038;-74
2022/07/26 08:44:29;;;;;;;1.63;0.67;;;;;;;21.24;100.00;101523.59;5196848;28;20034;-74
2022/07/26 08:47:00;;;;;;;2.30;0.57;;;;;;;21.34;100.00;101521.50;5201650;28;20027;-73
2022/07/26 08:49:32;;;;;;;2.27;0.60;;;;;;;21.72;100.00;101516.03;5198593;28;20030;-74
2022/07/26 08:52:04;;;;;;;1.40;0.50;;;;;;;21.95;100.00;101529.22;5198423;28;20037;-74
2022/07/26 08:54:40;;;;;;;1.55;0.50;;;;;;;21.87;100.00;101527.50;5193085;28;20049;-74
2022/07/26 08:57:12;;;;;;;0.95;0.50;;;;;;;21.88;100.00;101529.16;5193824;28;20056;-74
2022/07/26 08:59:43;;;;;;;2.33;0.60;;;;;;;21.88;100.00;101529.16;5193546;28;20030;-74
2022/07/26 09:02:15;;;;;;;1.87;0.60;;;;;;;22.11;100.00;101529.81;5196464;28;20084;-73
2022/07/26 09:04:46;;;;;;;1.47;0.50;;;;;;;22.00;93.34;101527.63;5196718;28;20496;-74
2022/07/26 09:07:18;;;;;;;4.63;0.90;;;;;;;22.17;93.66;101525.59;5195785;28;20049;-73
2022/07/26 09:09:59;;;;;;;1.33;0.50;;;;;;;22.55;90.46;101530.69;5195360;28;20042;-74
2022/07/26 09:12:31;;;;;;;1.75;0.60;;;;;;;22.66;89.82;101530.16;5193814;28;20036;-74
2022/07/26 09:15:06;;;;;;;2.33;0.70;;;;;;;22.55;81.56;101520.81;5195671;28;20030;-74
2022/07/26 09:17:39;;;;;;;3.38;0.73;;;;;;;22.46;83.06;101532.63;5192280;28;20660;-74
2022/07/26 09:20:19;;;;;;;1.95;0.68;;;;;;;22.64;87.17;101537.53;5195690;28;20033;-73
2022/07/26 09:23:02;;;;;;;1.48;0.55;;;;;;;22.81;86.43;101543.44;5195845;28;20030;-74
2022/07/26 09:25:39;;;;;;;2.13;0.90;;;;;;;22.64;86.69;101552.72;5204066;28;20122;-75
2022/07/26 09:28:24;;;;;;;4.00;1.10;;;;;;;22.72;86.58;101552.59;5198250;28;20022;-73
2022/07/26 09:31:00;;;;;;;5.82;0.90;;;;;;;22.45;89.21;101551.53;5194073;28;20022;-72
2022/07/26 09:33:44;;;;;;;5.03;0.85;;;;;;;22.52;88.32;101555.91;5194933;28;20026;-72
2022/07/26 09:36:16;;;;;;;2.42;0.98;;;;;;;22.23;88.46;101558.72;5209356;28;20088;-72
2022/07/26 09:38:50;;;;;;;2.55;0.90;;;;;;;22.13;89.50;101556.34;5198305;28;20022;-72
2022/07/26 09:41:30;;;;;;;3.83;1.10;;;;;;;22.16;91.88;101569.34;5203817;28;20570;-72
2022/07/26 09:44:04;;;;;;;4.28;1.45;;;;;;;22.23;89.03;101569.38;5206190;28;20502;-73
2022/07/26 09:46:51;;;;;;;4.75;1.48;;;;;;;22.43;87.56;101567.75;5200682;28;20030;-73
2022/07/26 09:49:24;;;;;;;5.63;1.40;;;;;;;22.49;85.63;101575.00;5203665;28;20030;-73
2022/07/26 09:51:55;;;;;;;4.95;1.50;;;;;;;22.33;84.32;101561.91;5204646;28;20026;-73
2022/07/26 09:54:31;;;;;;;5.67;1.17;;;;;;;22.69;84.51;101579.69;5202683;28;20468;-74
2022/07/26 09:57:03;;;;;;;7.93;1.65;;;;;;;22.67;85.12;101579.88;5205218;28;20105;-73
2022/07/26 09:59:34;;;;;;;5.80;1.50;;;;;;;22.79;82.67;101577.53;5205462;28;20033;-74
2022/07/26 10:02:06;;;;;;;7.90;1.80;;;;;;;23.01;80.08;101576.50;5199717;28;20492;-73
2022/07/26 10:04:37;;;;;;;4.60;1.40;;;;;;;22.78;77.92;101579.38;5200269;28;20042;-73
2022/07/26 10:07:09;;;;;;;5.93;1.20;;;;;;;22.52;79.80;101579.97;5203149;28;20125;-73
2022/07/26 10:10:13;;;;;;;2.47;0.95;;;;;;;22.85;79.55;101591.97;5204508;28;21671;-73
2022/07/26 10:12:45;;;;;;;1.67;0.95;;;;;;;22.14;81.35;101595.38;5204539;28;20420;-73
2022/07/26 10:15:39;;;;;;;1.33;0.60;;;;;;;22.23;85.52;101593.41;5204944;28;20473;-73
2022/07/26 10:18:33;;;;;;;2.15;0.93;;;;;;;22.11;86.95;101601.88;5209040;28;20061;-73
2022/07/26 10:21:26;;;;;;;1.63;0.70;;;;;;;21.81;92.21;101608.28;5203347;28;20184;-73
2022/07/26 10:24:01;;;;;;;;;;;;;;;22.36;86.18;101608.75;5204906;28;20495;-73
2022/07/26 10:26:33;;;;;;;3.20;1.10;;;;;;;21.88;96.13;101611.03;5201935;28;19910;-73
2022/07/26 10:29:22;;;;;;;3.80;1.10;;;;;;;21.94;97.07;101616.47;5204734;28;20022;-73
2022/07/26 10:32:00;;;;;;;4.43;1.15;;;;;;;22.19;96.41;101616.16;5202353;28;20030;-73
2022/07/26 10:34:32;;;;;;;3.78;1.00;;;;;;;22.07;89.34;101616.59;5205876;28;20033;-73
2022/07/26 10:37:07;;;;;;;2.35;0.77;;;;;;;22.61;89.35;101614.53;5197835;28;20125;-74
2022/07/26 10:39:38;;;;;;;3.38;0.80;;;;;;;22.81;84.35;101608.38;5200883;28;20123;-73
2022/07/26 10:42:10;;;;;;;3.77;0.90;;;;;;;22.97;78.33;101612.66;5198147;28;20555;-73
2022/07/26 10:44:44;;;;;;;5.07;0.90;;;;;;;23.02;74.99;101623.56;5204303;28;20026;-73
2022/07/26 10:47:17;;;;;;;4.22;1.02;;;;;;;23.08;72.88;101616.66;5202684;28;20467;-73
2022/07/26 10:49:55;;;;;;;2.47;0.80;;;;;;;23.18;70.91;101619.78;5204272;28;20022;-73
2022/07/26 10:52:30;;;;;;;2.85;0.88;;;;;;;23.14;70.11;101623.03;5201632;28;20038;-72
2022/07/26 10:55:04;;;;;;;1.75;0.68;;;;;;;23.22;68.32;101630.91;5199294;28;20022;-72
2022/07/26 10:57:41;;;;;;;2.67;0.73;;;;;;;23.29;70.39;101629.13;5198418;28;20022;-72
2022/07/26 11:00:24;;;;;;;2.70;0.80;;;;;;;23.34;69.74;101624.03;5198132;28;20034;-72
2022/07/26 11:02:58;;;;;;;3.40;0.80;;;;;;;23.30;67.56;101638.81;5202363;28;20034;-72
2022/07/26 11:05:33;;;;;;;1.92;0.68;;;;;;;22.98;66.95;101638.34;5199663;28;20037;-72
2022/07/26 11:08:09;;;;;;;1.63;0.60;;;;;;;23.05;71.34;101651.78;5203557;28;20037;-74
2022/07/26 11:10:43;;;;;;;2.78;0.60;;;;;;;23.02;72.98;101652.97;5204337;28;20567;-74
2022/07/26 11:13:20;;;;;;;2.53;0.80;;;;;;;22.77;79.81;101652.53;5198031;28;20038;-74
2022/07/26 11:15:59;;;;;;;3.00;0.85;;;;;;;22.37;90.82;101655.78;5197466;28;20085;-73
2022/07/26 11:18:34;;;;;;;2.13;0.68;;;;;;;21.95;94.79;101666.13;5197576;28;20216;-73
2022/07/26 11:21:13;;;;;;;2.05;0.77;;;;;;;21.90;100.00;101659.72;5197695;28;20026;-73
2022/07/26 11:23:46;;;;;;;3.90;1.30;;;;;;;21.66;100.00;101660.78;5196387;28;20896;-73
2022/07/26 11:26:19;;;;;;;3.55;1.45;;;;;;;21.63;100.00;101659.34;5233801;23;20065;-70
2022/07/26 11:29:01;;;;;;;2.00;1.20;;;;;;;21.75;100.00;101670.38;5208368;28;20494;-70
2022/07/26 11:31:36;;;;;;;3.13;1.15;;;;;;;21.41;100.00;101668.22;5212458;28;20116;-70
2022/07/26 11:34:14;;;;;;;2.42;1.00;;;;;;;21.26;100.00;101669.00;5211528;28;20497;-70
2022/07/26 11:36:47;;;;;;;2.90;1.20;;;;;;;21.26;100.00;101674.31;5200666;28;20172;-70
2022/07/26 11:39:23;;;;;;;2.15;1.10;;;;;;;21.70;100.00;101673.56;5202919;28;20080;-70
2022/07/26 11:42:02;;;;;;;2.55;1.08;;;;;;;21.88;100.00;101672.38;5198970;28;20037;-70